Time;durP1;ratioP1;P1;durP2;ratioP2;P2;SDS_P1;SDS_P2;PMS_P1;PMS_P2;Temp;Humidity;BMP_temperature;BMP_pressure;BME280_temperature;BME280_humidity;BME280_pressure;Samples;Min_cycle;Max_cycle;Signal;HPM_P1;HPM_P2
2023/09/28 00:00:38;;;;;;;6.93;2.20;;;;;;;;;;5062151;28;20070;-83
2023/09/28 00:03:06;;;;;;;6.68;2.30;;;;;;;;;;5063539;28;20051;-84
2023/09/28 00:05:31;;;;;;;3.97;2.35;;;;;;;;;;5062670;28;20089;-84
2023/09/28 00:07:59;;;;;;;6.30;2.65;;;;;;;;;;5062138;28;20080;-84
2023/09/28 00:10:25;;;;;;;3.50;2.47;;;;;;;;;;5055249;28;20025;-83
2023/09/28 00:12:52;;;;;;;3.92;2.40;;;;;;;;;;5073366;28;20037;-83
2023/09/28 00:15:19;;;;;;;2.97;2.30;;;;;;;;;;5062273;28;20501;-84
2023/09/28 00:17:47;;;;;;;2.88;2.33;;;;;;;;;;5068443;28;20099;-83
2023/09/28 00:20:17;;;;;;;4.13;2.30;;;;;;;;;;5070628;28;20036;-83
2023/09/28 00:22:49;;;;;;;5.90;2.58;;;;;;;;;;5058430;28;20016;-83
2023/09/28 00:25:16;;;;;;;3.28;2.30;;;;;;;;;;5085557;28;20023;-84
2023/09/28 00:27:46;;;;;;;5.35;2.70;;;;;;;;;;5078120;28;20115;-83
2023/09/28 00:30:15;;;;;;;4.72;2.55;;;;;;;;;;5077899;28;20020;-84
2023/09/28 00:32:44;;;;;;;2.70;2.40;;;;;;;;;;5081348;28;20126;-83
2023/09/28 00:35:09;;;;;;;3.78;2.20;;;;;;;;;;5073417;28;20418;-84
2023/09/28 00:37:35;;;;;;;3.25;2.38;;;;;;;;;;5050782;28;20077;-83
2023/09/28 00:40:06;;;;;;;8.55;2.75;;;;;;;;;;5069297;28;20051;-83
2023/09/28 00:42:32;;;;;;;3.53;2.42;;;;;;;;;;5085894;28;20044;-83
2023/09/28 00:44:57;;;;;;;2.97;2.47;;;;;;;;;;5058810;28;20021;-82
2023/09/28 00:47:23;;;;;;;3.80;2.28;;;;;;;;;;5065208;28;20371;-83
2023/09/28 00:49:49;;;;;;;4.07;2.55;;;;;;;;;;5065918;28;20027;-82
2023/09/28 00:52:17;;;;;;;4.28;2.80;;;;;;;;;;5049151;28;20029;-83
2023/09/28 00:54:48;;;;;;;3.25;2.40;;;;;;;;;;5084005;28;20032;-83
2023/09/28 00:57:14;;;;;;;3.23;2.37;;;;;;;;;;5078875;28;20106;-82
2023/09/28 00:59:40;;;;;;;3.60;2.50;;;;;;;;;;5061214;28;20471;-83
2023/09/28 01:02:08;;;;;;;3.08;2.22;;;;;;;;;;5055978;28;20099;-83
2023/09/28 01:04:35;;;;;;;3.38;2.45;;;;;;;;;;5062058;28;20493;-82
2023/09/28 01:07:00;;;;;;;4.60;2.47;;;;;;;;;;5075977;28;20036;-82
2023/09/28 01:09:26;;;;;;;2.88;2.40;;;;;;;;;;5071793;28;20029;-83
2023/09/28 01:11:52;;;;;;;3.78;3.00;;;;;;;;;;5081732;28;20062;-82
2023/09/28 01:14:19;;;;;;;3.60;2.35;;;;;;;;;;5075247;28;20128;-83
2023/09/28 01:16:44;;;;;;;5.53;1.92;;;;;;;;;;5067240;28;20025;-84
2023/09/28 01:19:10;;;;;;;3.42;2.40;;;;;;;;;;5078201;28;20032;-83
2023/09/28 01:21:36;;;;;;;2.22;2.03;;;;;;;;;;5062894;28;20483;-82
2023/09/28 01:24:02;;;;;;;3.47;2.30;;;;;;;;;;5069513;28;20051;-82
2023/09/28 01:26:30;;;;;;;4.82;2.67;;;;;;;;;;5074515;28;20098;-84
2023/09/28 01:28:56;;;;;;;2.75;2.20;;;;;;;;;;5070021;28;20024;-83
2023/09/28 01:31:22;;;;;;;2.90;2.00;;;;;;;;;;5072523;28;20028;-83
2023/09/28 01:33:47;;;;;;;4.10;2.00;;;;;;;;;;5082801;28;20028;-83
2023/09/28 01:36:12;;;;;;;2.53;2.20;;;;;;;;;;5071089;28;20029;-84
2023/09/28 01:38:47;;;;;;;5.82;2.50;;;;;;;;;;5070176;28;20467;-82
2023/09/28 01:41:12;;;;;;;5.07;2.42;;;;;;;;;;5082783;28;20028;-83
2023/09/28 01:43:37;;;;;;;3.45;2.42;;;;;;;;;;5076895;28;20402;-83
2023/09/28 01:46:03;;;;;;;2.83;2.22;;;;;;;;;;5076377;28;20115;-83
2023/09/28 01:48:28;;;;;;;3.45;2.42;;;;;;;;;;5065481;28;20032;-84
2023/09/28 01:50:54;;;;;;;2.38;2.15;;;;;;;;;;5058093;28;20495;-84
2023/09/28 01:53:19;;;;;;;4.05;2.28;;;;;;;;;;5076391;28;20020;-83
2023/09/28 01:55:46;;;;;;;3.05;2.15;;;;;;;;;;5072214;28;20085;-83
2023/09/28 01:58:12;;;;;;;3.53;2.80;;;;;;;;;;5070517;28;20028;-83
2023/09/28 02:00:37;;;;;;;4.38;2.47;;;;;;;;;;5066779;28;20060;-84
2023/09/28 02:03:04;;;;;;;4.43;3.15;;;;;;;;;;5077551;28;20064;-83
2023/09/28 02:05:32;;;;;;;6.25;2.38;;;;;;;;;;5070583;28;20490;-83
2023/09/28 02:07:58;;;;;;;4.32;2.72;;;;;;;;;;5072685;28;20074;-83
2023/09/28 02:10:24;;;;;;;2.33;2.10;;;;;;;;;;5088962;28;20497;-83
2023/09/28 02:12:50;;;;;;;4.25;3.00;;;;;;;;;;5064748;28;20119;-83
2023/09/28 02:15:16;;;;;;;4.03;2.40;;;;;;;;;;5076455;28;20109;-84
2023/09/28 02:17:42;;;;;;;4.45;2.53;;;;;;;;;;5064257;28;20398;-83
2023/09/28 02:20:09;;;;;;;4.63;2.63;;;;;;;;;;5064374;28;20056;-84
2023/09/28 02:22:43;;;;;;;2.88;2.38;;;;;;;;;;5086168;28;20051;-83
2023/09/28 02:25:09;;;;;;;3.83;2.67;;;;;;;;;;5077766;28;20031;-84
2023/09/28 02:27:35;;;;;;;4.43;2.72;;;;;;;;;;5076191;28;20017;-84
2023/09/28 02:30:01;;;;;;;5.25;2.65;;;;;;;;;;5068026;28;20050;-84
2023/09/28 02:32:26;;;;;;;2.80;2.05;;;;;;;;;;5089839;28;20030;-84
2023/09/28 02:34:51;;;;;;;3.72;2.45;;;;;;;;;;5065528;28;20483;-84
2023/09/28 02:37:17;;;;;;;4.05;2.55;;;;;;;;;;5090319;28;20395;-85
2023/09/28 02:39:43;;;;;;;5.28;3.10;;;;;;;;;;5088408;28;20032;-83
2023/09/28 02:42:08;;;;;;;4.32;2.85;;;;;;;;;;5071679;28;20506;-85
2023/09/28 02:44:34;;;;;;;2.80;2.17;;;;;;;;;;5089004;28;20028;-85
2023/09/28 02:47:00;;;;;;;5.07;2.60;;;;;;;;;;5081252;28;20062;-84
2023/09/28 02:49:27;;;;;;;3.00;2.28;;;;;;;;;;5092953;28;20032;-85
2023/09/28 02:51:53;;;;;;;3.25;2.40;;;;;;;;;;5068297;28;20170;-83
2023/09/28 02:54:19;;;;;;;5.53;2.67;;;;;;;;;;5082996;28;20497;-83
2023/09/28 02:56:45;;;;;;;2.95;1.80;;;;;;;;;;5067561;28;20032;-84
2023/09/28 02:59:10;;;;;;;3.47;2.17;;;;;;;;;;5070146;28;20024;-80
2023/09/28 03:01:36;;;;;;;2.15;1.95;;;;;;;;;;5090660;28;20016;-81
2023/09/28 03:04:01;;;;;;;4.47;2.80;;;;;;;;;;5096899;28;20025;-80
2023/09/28 03:06:27;;;;;;;4.70;3.00;;;;;;;;;;5081025;28;20083;-85
2023/09/28 03:08:52;;;;;;;4.07;2.15;;;;;;;;;;5056227;28;20031;-86
2023/09/28 03:11:17;;;;;;;3.33;2.08;;;;;;;;;;5083051;28;20032;-84
2023/09/28 03:13:43;;;;;;;3.67;2.25;;;;;;;;;;5060801;28;20067;-84
2023/09/28 03:16:09;;;;;;;9.55;2.95;;;;;;;;;;5071568;28;20024;-85
2023/09/28 03:18:34;;;;;;;5.00;2.40;;;;;;;;;;5072200;28;20029;-86
2023/09/28 03:21:00;;;;;;;3.50;2.53;;;;;;;;;;5065175;28;20024;-85
2023/09/28 03:23:25;;;;;;;2.30;1.77;;;;;;;;;;5070404;28;20016;-85
2023/09/28 03:25:55;;;;;;;2.88;1.98;;;;;;;;;;5056464;28;20027;-85
2023/09/28 03:28:20;;;;;;;6.88;2.40;;;;;;;;;;5083886;28;20067;-84
2023/09/28 03:30:46;;;;;;;3.60;2.33;;;;;;;;;;5069430;28;20057;-85
2023/09/28 03:33:11;;;;;;;3.42;2.67;;;;;;;;;;5054523;28;20031;-85
2023/09/28 03:35:36;;;;;;;3.13;2.40;;;;;;;;;;5053651;28;20122;-85
2023/09/28 03:38:02;;;;;;;3.45;2.20;;;;;;;;;;5071710;28;20377;-83
2023/09/28 03:40:33;;;;;;;4.20;2.45;;;;;;;;;;5071583;28;20051;-84
2023/09/28 03:42:59;;;;;;;5.53;2.72;;;;;;;;;;5063760;28;20017;-84
2023/09/28 03:45:24;;;;;;;3.50;2.28;;;;;;;;;;5068056;28;20021;-83
2023/09/28 03:47:51;;;;;;;6.28;2.63;;;;;;;;;;5064973;28;20994;-84
2023/09/28 03:50:17;;;;;;;3.42;2.17;;;;;;;;;;5070124;28;20543;-84
2023/09/28 03:52:46;;;;;;;2.97;2.35;;;;;;;;;;5065786;28;20021;-85
2023/09/28 03:55:17;;;;;;;3.03;2.13;;;;;;;;;;5063329;28;20029;-84
2023/09/28 03:57:43;;;;;;;3.33;2.45;;;;;;;;;;5058369;28;20024;-84
2023/09/28 04:00:12;;;;;;;4.10;2.28;;;;;;;;;;5060119;28;20115;-85
2023/09/28 04:02:38;;;;;;;4.80;2.25;;;;;;;;;;5074492;28;20033;-83
2023/09/28 04:05:05;;;;;;;2.15;1.85;;;;;;;;;;5079644;28;20016;-84
2023/09/28 04:07:30;;;;;;;3.95;2.45;;;;;;;;;;5078149;28;20016;-83
2023/09/28 04:09:56;;;;;;;3.45;2.38;;;;;;;;;;5058839;28;20033;-85
2023/09/28 04:12:21;;;;;;;2.25;2.05;;;;;;;;;;5059555;28;20032;-85
2023/09/28 04:14:47;;;;;;;3.85;2.40;;;;;;;;;;5059469;28;20028;-85
2023/09/28 04:17:13;;;;;;;3.25;2.60;;;;;;;;;;5075198;28;20055;-85
2023/09/28 04:19:38;;;;;;;3.65;2.35;;;;;;;;;;5074439;28;20052;-84
2023/09/28 04:22:04;;;;;;;2.92;2.40;;;;;;;;;;5060986;28;20032;-85
2023/09/28 04:24:29;;;;;;;6.03;2.38;;;;;;;;;;5074675;28;20025;-84
2023/09/28 04:26:58;;;;;;;3.38;2.50;;;;;;;;;;5064423;28;20029;-85
2023/09/28 04:29:24;;;;;;;2.78;2.20;;;;;;;;;;5058024;28;20036;-85
2023/09/28 04:31:49;;;;;;;3.60;2.30;;;;;;;;;;5066416;28;20652;-84
2023/09/28 04:34:15;;;;;;;3.78;2.35;;;;;;;;;;5059987;28;20127;-84
2023/09/28 04:36:41;;;;;;;2.92;2.22;;;;;;;;;;5065048;28;20020;-84
2023/09/28 04:39:10;;;;;;;2.65;2.03;;;;;;;;;;5068458;28;21017;-84
2023/09/28 04:41:36;;;;;;;2.55;2.15;;;;;;;;;;5071529;28;20028;-84
2023/09/28 04:44:02;;;;;;;2.53;2.00;;;;;;;;;;5062755;28;20013;-84
2023/09/28 04:46:27;;;;;;;4.60;2.40;;;;;;;;;;5071909;28;20087;-84
2023/09/28 04:48:54;;;;;;;3.95;2.30;;;;;;;;;;5071322;28;20070;-84
2023/09/28 04:51:19;;;;;;;3.08;2.20;;;;;;;;;;5074377;28;20036;-84
2023/09/28 04:53:45;;;;;;;2.10;1.85;;;;;;;;;;5059299;28;20103;-84
2023/09/28 04:56:12;;;;;;;4.18;2.38;;;;;;;;;;5059076;28;20047;-84
2023/09/28 04:58:38;;;;;;;4.47;2.20;;;;;;;;;;5074550;28;20035;-84
2023/09/28 05:01:04;;;;;;;3.42;1.90;;;;;;;;;;5068240;28;20055;-84
2023/09/28 05:03:30;;;;;;;4.13;2.50;;;;;;;;;;5074775;28;20024;-84
2023/09/28 05:05:56;;;;;;;3.38;2.08;;;;;;;;;;5064961;28;20020;-83
2023/09/28 05:08:22;;;;;;;3.25;2.45;;;;;;;;;;5058922;28;20048;-84
2023/09/28 05:10:47;;;;;;;5.55;2.58;;;;;;;;;;5061561;28;20024;-84
2023/09/28 05:13:13;;;;;;;3.17;2.40;;;;;;;;;;5048273;28;20029;-84
2023/09/28 05:15:38;;;;;;;6.25;2.55;;;;;;;;;;5053844;28;20024;-85
2023/09/28 05:18:04;;;;;;;7.53;2.83;;;;;;;;;;5061552;28;20432;-84
2023/09/28 05:20:30;;;;;;;3.00;2.38;;;;;;;;;;5061849;28;20028;-83
2023/09/28 05:22:55;;;;;;;3.08;2.20;;;;;;;;;;5062658;28;20115;-85
2023/09/28 05:25:21;;;;;;;2.38;1.90;;;;;;;;;;5074801;28;20039;-85
2023/09/28 05:27:46;;;;;;;4.50;2.50;;;;;;;;;;5053144;28;20039;-84
2023/09/28 05:30:12;;;;;;;3.45;2.22;;;;;;;;;;5054930;28;20025;-84
2023/09/28 05:32:37;;;;;;;3.15;2.50;;;;;;;;;;5069690;28;20033;-85
2023/09/28 05:35:05;;;;;;;4.43;2.03;;;;;;;;;;5057609;28;20024;-83
2023/09/28 05:37:30;;;;;;;4.55;2.78;;;;;;;;;;5054218;28;20053;-84
2023/09/28 05:39:56;;;;;;;2.40;1.95;;;;;;;;;;5055922;28;20059;-85
2023/09/28 05:42:21;;;;;;;4.22;2.15;;;;;;;;;;5069850;28;20120;-84
2023/09/28 05:44:46;;;;;;;2.88;1.85;;;;;;;;;;5076617;28;20032;-84
2023/09/28 05:47:12;;;;;;;4.50;2.20;;;;;;;;;;5055019;28;20063;-84
2023/09/28 05:49:37;;;;;;;3.38;2.42;;;;;;;;;;5061493;28;20025;-84
2023/09/28 05:52:03;;;;;;;2.00;1.80;;;;;;;;;;5079461;28;20070;-85
2023/09/28 05:54:28;;;;;;;3.00;1.77;;;;;;;;;;5070067;28;20032;-83
2023/09/28 05:56:54;;;;;;;4.85;2.55;;;;;;;;;;5067669;28;20120;-85
2023/09/28 05:59:19;;;;;;;4.90;2.30;;;;;;;;;;5077447;28;20029;-86
2023/09/28 06:01:45;;;;;;;3.28;2.47;;;;;;;;;;5071662;28;20093;-85
2023/09/28 06:04:12;;;;;;;6.15;2.30;;;;;;;;;;5085977;28;20032;-84
2023/09/28 06:06:37;;;;;;;5.82;2.53;;;;;;;;;;5091701;28;20028;-86
2023/09/28 06:09:03;;;;;;;3.03;2.08;;;;;;;;;;5080159;28;20430;-83
2023/09/28 06:11:28;;;;;;;4.88;2.90;;;;;;;;;;5080594;28;20479;-83
2023/09/28 06:13:53;;;;;;;3.58;2.42;;;;;;;;;;5058576;28;20063;-85
2023/09/28 06:16:19;;;;;;;4.75;2.55;;;;;;;;;;5060379;28;20025;-84
2023/09/28 06:18:44;;;;;;;4.30;2.28;;;;;;;;;;5070214;28;20422;-84
2023/09/28 06:21:10;;;;;;;3.72;2.58;;;;;;;;;;5061502;28;20025;-83
2023/09/28 06:23:35;;;;;;;3.42;2.15;;;;;;;;;;5089615;28;20445;-84
2023/09/28 06:26:01;;;;;;;4.10;2.85;;;;;;;;;;5076783;28;20530;-83
2023/09/28 06:28:27;;;;;;;4.78;2.60;;;;;;;;;;5069024;28;20047;-84
2023/09/28 06:30:54;;;;;;;4.47;2.15;;;;;;;;;;5075186;28;20483;-85
2023/09/28 06:33:24;;;;;;;3.40;2.60;;;;;;;;;;5085244;28;20472;-83
2023/09/28 06:35:50;;;;;;;3.83;2.40;;;;;;;;;;5073956;28;20075;-85
2023/09/28 06:38:16;;;;;;;4.30;2.55;;;;;;;;;;5071613;28;20025;-83
2023/09/28 06:40:43;;;;;;;4.05;2.78;;;;;;;;;;5080870;28;20057;-84
2023/09/28 06:43:08;;;;;;;3.85;2.13;;;;;;;;;;5063297;28;20076;-83
2023/09/28 06:45:34;;;;;;;5.05;2.58;;;;;;;;;;5062339;28;20445;-84
2023/09/28 06:48:00;;;;;;;4.13;2.78;;;;;;;;;;5063244;28;20556;-84
2023/09/28 06:50:25;;;;;;;3.80;2.45;;;;;;;;;;5060945;28;20116;-84
2023/09/28 06:52:51;;;;;;;6.93;2.92;;;;;;;;;;5058088;28;20470;-84
2023/09/28 06:55:17;;;;;;;5.43;2.65;;;;;;;;;;5084550;28;20021;-83
2023/09/28 06:57:42;;;;;;;6.25;3.13;;;;;;;;;;5059035;28;20028;-84
2023/09/28 07:00:09;;;;;;;4.93;2.90;;;;;;;;;;5069091;28;20087;-83
2023/09/28 07:02:35;;;;;;;4.25;2.70;;;;;;;;;;5077357;28;20020;-84
2023/09/28 07:05:02;;;;;;;3.17;2.50;;;;;;;;;;5076333;28;20463;-84
2023/09/28 07:07:29;;;;;;;4.45;2.42;;;;;;;;;;5066347;28;20545;-83
2023/09/28 07:09:55;;;;;;;7.85;3.30;;;;;;;;;;5079584;28;20043;-83
2023/09/28 07:12:21;;;;;;;4.20;2.50;;;;;;;;;;5069603;28;20023;-84
2023/09/28 07:14:47;;;;;;;4.80;2.83;;;;;;;;;;5070475;28;20457;-83
2023/09/28 07:17:18;;;;;;;6.88;3.13;;;;;;;;;;5079621;28;20028;-83
2023/09/28 07:19:43;;;;;;;5.03;2.50;;;;;;;;;;5083443;28;20024;-85
2023/09/28 07:22:09;;;;;;;5.90;2.58;;;;;;;;;;5073065;28;20099;-84
2023/09/28 07:24:34;;;;;;;7.65;3.00;;;;;;;;;;5067522;28;20375;-84
2023/09/28 07:27:00;;;;;;;3.63;2.65;;;;;;;;;;5055389;28;20025;-85
2023/09/28 07:29:25;;;;;;;4.15;2.80;;;;;;;;;;5081389;28;20023;-84
2023/09/28 07:31:51;;;;;;;5.05;2.58;;;;;;;;;;5073919;28;20032;-85
2023/09/28 07:34:16;;;;;;;3.95;2.65;;;;;;;;;;5073365;28;20033;-84
2023/09/28 07:36:41;;;;;;;3.80;2.70;;;;;;;;;;5080622;28;20024;-86
2023/09/28 07:39:07;;;;;;;4.40;2.63;;;;;;;;;;5061397;28;20438;-85
2023/09/28 07:41:32;;;;;;;4.15;2.45;;;;;;;;;;5066822;28;20028;-87
2023/09/28 07:43:57;;;;;;;3.75;2.53;;;;;;;;;;5065578;28;20074;-86
2023/09/28 07:46:23;;;;;;;4.55;2.58;;;;;;;;;;5087509;28;20024;-85
2023/09/28 07:48:48;;;;;;;5.43;2.50;;;;;;;;;;5077983;28;20036;-84
2023/09/28 07:51:13;;;;;;;6.85;2.72;;;;;;;;;;5067976;28;20020;-86
2023/09/28 07:53:39;;;;;;;4.88;2.78;;;;;;;;;;5063866;28;20055;-87
2023/09/28 07:56:04;;;;;;;5.93;2.70;;;;;;;;;;5078658;28;20416;-85
2023/09/28 07:58:30;;;;;;;6.20;2.58;;;;;;;;;;5080386;28;20104;-86
2023/09/28 08:00:55;;;;;;;3.97;2.53;;;;;;;;;;5055587;28;20028;-85
2023/09/28 08:03:20;;;;;;;6.85;2.97;;;;;;;;;;5090306;28;20491;-86
2023/09/28 08:05:46;;;;;;;8.40;3.47;;;;;;;;;;5085054;28;20479;-85
2023/09/28 08:08:11;;;;;;;7.03;2.85;;;;;;;;;;5075056;28;20490;-87
2023/09/28 08:10:37;;;;;;;4.07;2.58;;;;;;;;;;5088883;28;20072;-88
2023/09/28 08:13:03;;;;;;;4.43;2.95;;;;;;;;;;5087192;28;20033;-85
2023/09/28 08:15:28;;;;;;;4.00;2.63;;;;;;;;;;5083036;28;20025;-85
2023/09/28 08:17:54;;;;;;;3.40;2.63;;;;;;;;;;5085546;28;20028;-86
2023/09/28 08:20:20;;;;;;;5.30;2.42;;;;;;;;;;5062545;28;20032;-86
2023/09/28 08:22:46;;;;;;;6.53;2.67;;;;;;;;;;5066957;28;20107;-86
2023/09/28 08:25:14;;;;;;;3.40;2.22;;;;;;;;;;5083693;28;20106;-86
2023/09/28 08:27:40;;;;;;;3.35;2.42;;;;;;;;;;5077254;28;20027;-86
2023/09/28 08:30:07;;;;;;;4.65;2.72;;;;;;;;;;5079693;28;20045;-86
2023/09/28 08:32:32;;;;;;;5.63;2.63;;;;;;;;;;5075757;28;20115;-86
2023/09/28 08:34:57;;;;;;;4.65;2.25;;;;;;;;;;5061866;28;20048;-86
2023/09/28 08:37:24;;;;;;;5.65;2.60;;;;;;;;;;5082558;28;20036;-86
2023/09/28 08:39:50;;;;;;;6.60;2.70;;;;;;;;;;5093224;28;20032;-86
2023/09/28 08:42:23;;;;;;;5.03;2.75;;;;;;;;;;5078508;28;20000;-85
2023/09/28 08:44:53;;;;;;;5.93;2.58;;;;;;;;;;5100774;28;20096;-87
2023/09/28 08:47:19;;;;;;;3.63;2.50;;;;;;;;;;5064918;28;20049;-87
2023/09/28 08:49:47;;;;;;;2.90;2.50;;;;;;;;;;5066491;28;20377;-86
2023/09/28 08:52:14;;;;;;;5.30;2.80;;;;;;;;;;5072962;28;20024;-87
2023/09/28 08:54:41;;;;;;;4.70;2.42;;;;;;;;;;5063721;28;20025;-86
2023/09/28 08:57:07;;;;;;;7.43;2.50;;;;;;;;;;5074566;28;20051;-86
2023/09/28 08:59:35;;;;;;;5.78;2.65;;;;;;;;;;5077485;28;20092;-86
2023/09/28 09:02:03;;;;;;;3.55;2.22;;;;;;;;;;5069343;28;20020;-87
2023/09/28 09:04:28;;;;;;;6.40;2.63;;;;;;;;;;5094493;28;20158;-87
2023/09/28 09:06:54;;;;;;;3.53;2.28;;;;;;;;;;5068452;28;20052;-87
2023/09/28 09:09:21;;;;;;;5.93;2.30;;;;;;;;;;5084922;28;20028;-86
2023/09/28 09:11:50;;;;;;;3.83;2.53;;;;;;;;;;5088146;28;20055;-87
2023/09/28 09:14:16;;;;;;;6.05;2.63;;;;;;;;;;5073025;28;20514;-85
2023/09/28 09:16:42;;;;;;;3.58;2.45;;;;;;;;;;5078217;28;20028;-86
2023/09/28 09:19:13;;;;;;;4.50;2.22;;;;;;;;;;5059810;28;20071;-87
2023/09/28 09:21:43;;;;;;;6.30;2.60;;;;;;;;;;5083801;28;20112;-86
2023/09/28 09:24:11;;;;;;;6.03;2.70;;;;;;;;;;5060429;28;20025;-84
2023/09/28 09:26:40;;;;;;;4.28;2.50;;;;;;;;;;5066611;28;20020;-86
2023/09/28 09:29:05;;;;;;;5.88;2.17;;;;;;;;;;5071199;28;20028;-86
2023/09/28 09:31:31;;;;;;;4.95;2.55;;;;;;;;;;5093537;28;20044;-85
2023/09/28 09:33:56;;;;;;;5.43;2.92;;;;;;;;;;5080903;28;20050;-85
2023/09/28 09:36:21;;;;;;;5.70;2.35;;;;;;;;;;5099005;28;20031;-85
2023/09/28 09:38:50;;;;;;;3.53;2.33;;;;;;;;;;5098436;28;20104;-86
2023/09/28 09:41:16;;;;;;;4.22;2.40;;;;;;;;;;5069825;28;20024;-86
2023/09/28 09:43:41;;;;;;;3.17;2.38;;;;;;;;;;5095479;28;20027;-86
2023/09/28 09:46:08;;;;;;;2.13;1.85;;;;;;;;;;5074191;28;20016;-86
2023/09/28 09:48:41;;;;;;;3.47;2.42;;;;;;;;;;5068994;28;20021;-85
2023/09/28 09:51:13;;;;;;;3.58;2.60;;;;;;;;;;5056242;28;20028;-86
2023/09/28 09:53:40;;;;;;;3.42;2.20;;;;;;;;;;5094491;28;20390;-86
2023/09/28 09:56:07;;;;;;;3.65;2.45;;;;;;;;;;5091737;28;20012;-85
2023/09/28 09:58:39;;;;;;;2.45;1.90;;;;;;;;;;5092034;28;20379;-86
2023/09/28 10:01:12;;;;;;;2.92;2.08;;;;;;;;;;5066986;28;20506;-87
2023/09/28 10:03:51;;;;;;;3.58;2.17;;;;;;;;;;5089589;28;20075;-85
2023/09/28 10:06:19;;;;;;;2.50;1.85;;;;;;;;;;5063974;28;20044;-87
2023/09/28 10:08:45;;;;;;;3.58;2.15;;;;;;;;;;5076672;28;20044;-86
2023/09/28 10:11:12;;;;;;;4.28;2.28;;;;;;;;;;5079501;28;20031;-86
2023/09/28 10:13:38;;;;;;;4.45;1.98;;;;;;;;;;5076817;28;20546;-87
2023/09/28 10:16:04;;;;;;;3.45;2.28;;;;;;;;;;5080895;28;20024;-86
2023/09/28 10:18:31;;;;;;;4.18;2.10;;;;;;;;;;5082792;28;20514;-88
2023/09/28 10:20:59;;;;;;;4.03;1.75;;;;;;;;;;5079896;28;20032;-86
2023/09/28 10:23:27;;;;;;;3.72;2.10;;;;;;;;;;5069134;28;20057;-85
2023/09/28 10:25:53;;;;;;;2.67;1.70;;;;;;;;;;5079176;28;20039;-86
2023/09/28 10:28:19;;;;;;;2.67;1.90;;;;;;;;;;5085768;28;20269;-86
2023/09/28 10:30:45;;;;;;;2.30;1.75;;;;;;;;;;5085960;28;20033;-86
2023/09/28 10:33:13;;;;;;;2.80;1.85;;;;;;;;;;5094198;28;20031;-88
2023/09/28 10:35:40;;;;;;;4.78;2.28;;;;;;;;;;5077825;28;20021;-89
2023/09/28 10:38:21;;;;;;;2.47;1.83;;;;;;;;;;5082200;28;20024;-88
2023/09/28 10:41:00;;;;;;;3.85;1.85;;;;;;;;;;5100955;28;20112;-87
2023/09/28 10:43:29;;;;;;;2.30;1.70;;;;;;;;;;5073646;28;20025;-86
2023/09/28 10:45:55;;;;;;;3.38;2.00;;;;;;;;;;5078268;28;20043;-86
2023/09/28 10:48:22;;;;;;;3.28;1.65;;;;;;;;;;5076112;28;20095;-86
2023/09/28 10:50:47;;;;;;;3.13;1.80;;;;;;;;;;5078504;28;20031;-84
2023/09/28 10:53:13;;;;;;;2.65;1.63;;;;;;;;;;5082876;28;20032;-88
2023/09/28 10:55:41;;;;;;;3.03;2.10;;;;;;;;;;5069258;28;20021;-88
2023/09/28 10:58:07;;;;;;;3.17;2.10;;;;;;;;;;5077378;28;20040;-87
2023/09/28 11:00:34;;;;;;;3.22;2.05;;;;;;;;;;5084456;28;20454;-83
2023/09/28 11:02:59;;;;;;;3.92;2.03;;;;;;;;;;5072677;28;20487;-82
2023/09/28 11:05:25;;;;;;;3.15;2.10;;;;;;;;;;5069802;28;20028;-84
2023/09/28 11:07:51;;;;;;;3.55;2.10;;;;;;;;;;5066158;28;20048;-84
2023/09/28 11:10:16;;;;;;;2.53;2.03;;;;;;;;;;5069717;28;20020;-83
2023/09/28 11:12:42;;;;;;;3.15;2.03;;;;;;;;;;5085445;28;20028;-86
2023/09/28 11:15:09;;;;;;;2.17;1.98;;;;;;;;;;5069572;28;20113;-85
2023/09/28 11:17:35;;;;;;;6.53;2.40;;;;;;;;;;5086204;28;20397;-86
2023/09/28 11:20:01;;;;;;;2.90;2.00;;;;;;;;;;5074683;28;20024;-85
2023/09/28 11:22:30;;;;;;;4.40;2.03;;;;;;;;;;5091020;28;20024;-86
2023/09/28 11:24:56;;;;;;;3.63;1.90;;;;;;;;;;5085982;28;20013;-85
2023/09/28 11:27:22;;;;;;;2.83;1.88;;;;;;;;;;5085216;28;20050;-86
2023/09/28 11:29:56;;;;;;;2.75;1.83;;;;;;;;;;5089244;28;20375;-86
2023/09/28 11:32:22;;;;;;;3.60;1.58;;;;;;;;;;5087472;28;20112;-88
2023/09/28 11:34:47;;;;;;;2.80;1.75;;;;;;;;;;5076492;28;20060;-86
2023/09/28 11:37:16;;;;;;;3.53;1.70;;;;;;;;;;5069593;28;20051;-87
2023/09/28 11:39:42;;;;;;;4.22;1.55;;;;;;;;;;5078722;28;20025;-86
2023/09/28 11:42:08;;;;;;;4.03;1.70;;;;;;;;;;5064165;28;20024;-87
2023/09/28 11:44:34;;;;;;;4.15;1.75;;;;;;;;;;5089555;28;20478;-85
2023/09/28 11:47:00;;;;;;;2.78;1.70;;;;;;;;;;5073718;28;20099;-85
2023/09/28 11:49:26;;;;;;;2.70;1.70;;;;;;;;;;5084798;28;20017;-87
2023/09/28 11:51:55;;;;;;;1.85;1.58;;;;;;;;;;5071328;28;20111;-87
2023/09/28 11:54:21;;;;;;;3.75;1.92;;;;;;;;;;5086251;28;20025;-88
2023/09/28 11:56:49;;;;;;;6.22;2.50;;;;;;;;;;5086800;28;20025;-87
2023/09/28 11:59:15;;;;;;;3.83;2.17;;;;;;;;;;5060459;28;20016;-85
2023/09/28 12:01:51;;;;;;;5.28;2.20;;;;;;;;;;5101664;28;20032;-86
2023/09/28 12:04:17;;;;;;;4.80;2.78;;;;;;;;;;5096288;28;20059;-86
2023/09/28 12:06:43;;;;;;;4.28;2.28;;;;;;;;;;5109106;28;20025;-86
2023/09/28 12:09:08;;;;;;;3.97;2.30;;;;;;;;;;5079272;28;20020;-84
2023/09/28 12:11:37;;;;;;;5.50;3.03;;;;;;;;;;5108041;28;20035;-86
2023/09/28 12:14:03;;;;;;;5.13;2.42;;;;;;;;;;5086653;28;20015;-85
2023/09/28 12:16:28;;;;;;;6.20;2.50;;;;;;;;;;5086156;28;20076;-85
2023/09/28 12:18:53;;;;;;;4.80;3.03;;;;;;;;;;5087211;28;20028;-84
2023/09/28 12:21:19;;;;;;;9.13;4.65;;;;;;;;;;5095673;28;20056;-86
2023/09/28 12:23:44;;;;;;;10.20;4.90;;;;;;;;;;5089904;28;20043;-86
2023/09/28 12:26:10;;;;;;;10.68;5.63;;;;;;;;;;5067312;28;20029;-86
2023/09/28 12:28:37;;;;;;;11.45;5.55;;;;;;;;;;5105864;28;20029;-86
2023/09/28 12:31:03;;;;;;;12.60;6.30;;;;;;;;;;5087535;28;20029;-87
2023/09/28 12:33:29;;;;;;;6.30;4.18;;;;;;;;;;5097682;28;20009;-86
2023/09/28 12:35:56;;;;;;;5.40;3.00;;;;;;;;;;5097657;28;20046;-86
2023/09/28 12:38:21;;;;;;;7.13;2.80;;;;;;;;;;5096998;28;20490;-87
2023/09/28 12:40:48;;;;;;;6.72;2.45;;;;;;;;;;5089935;28;20074;-87
2023/09/28 12:43:13;;;;;;;4.25;2.70;;;;;;;;;;5060004;28;20086;-84
2023/09/28 12:45:38;;;;;;;4.32;2.33;;;;;;;;;;5057221;28;20025;-85
2023/09/28 12:48:05;;;;;;;2.28;1.67;;;;;;;;;;5078057;28;20031;-85
2023/09/28 12:50:32;;;;;;;2.72;1.92;;;;;;;;;;5089973;28;20052;-85
2023/09/28 12:52:57;;;;;;;2.13;1.70;;;;;;;;;;5067746;28;20029;-86
2023/09/28 12:55:26;;;;;;;3.15;2.08;;;;;;;;;;5069493;28;20071;-85
2023/09/28 12:57:54;;;;;;;3.00;1.80;;;;;;;;;;5063761;28;20024;-86
2023/09/28 13:00:21;;;;;;;3.10;1.60;;;;;;;;;;5054330;28;20020;-86
2023/09/28 13:02:46;;;;;;;2.47;1.92;;;;;;;;;;5086308;28;20025;-85
2023/09/28 13:05:15;;;;;;;2.78;1.67;;;;;;;;;;5072344;28;20089;-85
2023/09/28 13:07:41;;;;;;;2.20;1.42;;;;;;;;;;5082718;28;20028;-86
2023/09/28 13:10:10;;;;;;;2.38;1.85;;;;;;;;;;5071906;28;20028;-85
2023/09/28 13:12:35;;;;;;;2.95;1.70;;;;;;;;;;5072355;28;20032;-86
2023/09/28 13:15:01;;;;;;;1.98;1.50;;;;;;;;;;5077566;28;20024;-85
2023/09/28 13:17:30;;;;;;;1.48;1.10;;;;;;;;;;5078566;28;20029;-85
2023/09/28 13:19:55;;;;;;;1.83;1.40;;;;;;;;;;5080791;28;20063;-85
2023/09/28 13:22:21;;;;;;;2.15;1.55;;;;;;;;;;5087081;28;20028;-86
2023/09/28 13:24:46;;;;;;;3.83;1.50;;;;;;;;;;5107849;28;20013;-87
2023/09/28 13:27:12;;;;;;;1.90;1.55;;;;;;;;;;5078443;28;20021;-86
2023/09/28 13:29:39;;;;;;;1.23;1.13;;;;;;;;;;5081271;28;20016;-85
2023/09/28 13:32:07;;;;;;;2.22;1.63;;;;;;;;;;5067264;28;20025;-86
2023/09/28 13:34:32;;;;;;;1.83;1.63;;;;;;;;;;5081965;28;20017;-86
2023/09/28 13:36:58;;;;;;;2.92;1.60;;;;;;;;;;5080200;28;20035;-86
2023/09/28 13:39:32;;;;;;;4.20;1.88;;;;;;;;;;5079588;28;20032;-85
2023/09/28 13:42:05;;;;;;;1.52;1.42;;;;;;;;;;5074073;28;20029;-86
2023/09/28 13:44:32;;;;;;;2.50;1.40;;;;;;;;;;5087534;28;20058;-87
2023/09/28 13:47:00;;;;;;;1.98;1.40;;;;;;;;;;5075560;28;20028;-85
2023/09/28 13:49:27;;;;;;;3.40;1.48;;;;;;;;;;5093416;28;20024;-86
2023/09/28 13:51:57;;;;;;;2.08;1.60;;;;;;;;;;5073921;28;20052;-86
2023/09/28 13:54:23;;;;;;;2.53;1.50;;;;;;;;;;5076453;28;20017;-86
2023/09/28 13:56:48;;;;;;;1.13;1.02;;;;;;;;;;5091865;28;20030;-85
2023/09/28 13:59:14;;;;;;;3.95;1.90;;;;;;;;;;5072175;28;20047;-86
2023/09/28 14:01:43;;;;;;;1.60;1.25;;;;;;;;;;5091443;28;20078;-86
2023/09/28 14:04:55;;;;;;;1.75;1.27;;;;;;;;;;5058628;28;20039;-84
2023/09/28 14:07:20;;;;;;;1.95;1.45;;;;;;;;;;5074091;28;20073;-85
2023/09/28 14:09:58;;;;;;;3.03;1.30;;;;;;;;;;5078867;28;20021;-85
2023/09/28 14:12:25;;;;;;;1.88;1.33;;;;;;;;;;5064599;28;20034;-86
2023/09/28 14:14:51;;;;;;;3.38;1.65;;;;;;;;;;5087801;28;20060;-85
2023/09/28 14:17:16;;;;;;;2.05;1.25;;;;;;;;;;5078916;28;20090;-84
2023/09/28 14:19:42;;;;;;;2.10;1.50;;;;;;;;;;5079085;28;20532;-87
2023/09/28 14:22:07;;;;;;;1.77;1.33;;;;;;;;;;5068898;28;20025;-85
2023/09/28 14:24:32;;;;;;;2.40;1.15;;;;;;;;;;5064791;28;20127;-86
2023/09/28 14:26:59;;;;;;;3.15;1.40;;;;;;;;;;5076416;28;20033;-85
2023/09/28 14:29:25;;;;;;;1.35;1.13;;;;;;;;;;5069959;28;20033;-87
2023/09/28 14:31:52;;;;;;;3.72;1.40;;;;;;;;;;5066362;28;20165;-86
2023/09/28 14:34:18;;;;;;;2.28;1.40;;;;;;;;;;5073814;28;20024;-86
2023/09/28 14:36:43;;;;;;;2.15;1.60;;;;;;;;;;5068703;28;20454;-85
2023/09/28 14:39:09;;;;;;;2.60;1.80;;;;;;;;;;5068618;28;20024;-86